createdAt,value
2024-01-20T00:00:53.156Z,-26.03
2024-01-20T00:03:56.675Z,-25.98
2024-01-20T00:07:00.307Z,-25.93
2024-01-20T00:10:03.832Z,-25.96
2024-01-20T00:13:07.565Z,-25.97
2024-01-20T00:16:10.985Z,-26.00
2024-01-20T00:19:14.805Z,-26.03
2024-01-20T00:22:18.342Z,-26.09
2024-01-20T00:25:22.746Z,-26.07
2024-01-20T00:28:26.461Z,-26.10
2024-01-20T00:31:30.272Z,-26.07
2024-01-20T00:34:46.161Z,-26.02
2024-01-20T00:37:57.821Z,-26.07
2024-01-20T00:41:01.344Z,-26.09
2024-01-20T00:44:04.867Z,-26.21
2024-01-20T00:47:08.749Z,-26.46
2024-01-20T00:50:12.471Z,-26.72
2024-01-20T00:53:15.809Z,-26.96
2024-01-20T00:56:19.271Z,-26.90
2024-01-20T00:59:22.973Z,-26.61
2024-01-20T01:02:27.736Z,-26.24
2024-01-20T01:05:31.340Z,-25.99
2024-01-20T01:08:34.779Z,-25.87
2024-01-20T01:11:38.144Z,-25.80
2024-01-20T01:14:41.751Z,-25.70
2024-01-20T01:17:45.327Z,-25.60
2024-01-20T01:20:48.822Z,-25.62
2024-01-20T01:23:52.468Z,-25.70
2024-01-20T01:26:56.119Z,-25.73
2024-01-20T01:29:59.547Z,-25.65
2024-01-20T01:33:03.052Z,-25.55
2024-01-20T01:36:06.969Z,-25.50
2024-01-20T01:39:11.129Z,-25.58
2024-01-20T01:42:15.582Z,-25.85
2024-01-20T01:45:20.466Z,-25.95
2024-01-20T01:48:29.883Z,-25.79
2024-01-20T01:51:34.205Z,-25.61
2024-01-20T01:54:37.822Z,-25.52
2024-01-20T01:57:43.489Z,-25.51
2024-01-20T02:00:47.104Z,-25.51
2024-01-20T02:03:51.244Z,-25.43
2024-01-20T02:06:55.083Z,-25.31
2024-01-20T02:09:58.623Z,-25.26
2024-01-20T02:13:02.441Z,-25.20
2024-01-20T02:16:06.364Z,-25.05
2024-01-20T02:19:09.983Z,-24.84
2024-01-20T02:22:17.685Z,-24.68
2024-01-20T02:25:21.654Z,-24.66
2024-01-20T02:28:25.001Z,-24.69
2024-01-20T02:31:28.001Z,-24.60
2024-01-20T02:34:31.622Z,-24.50
2024-01-20T02:37:35.004Z,-24.39
2024-01-20T02:40:38.366Z,-24.44
2024-01-20T02:43:41.760Z,-24.50
2024-01-20T02:46:45.332Z,-24.52
2024-01-20T02:49:48.966Z,-24.49
2024-01-20T02:52:54.567Z,-24.39
2024-01-20T02:55:57.900Z,-24.31
2024-01-20T02:59:01.503Z,-24.18
2024-01-20T03:02:05.064Z,-24.14
2024-01-20T03:05:08.870Z,-24.05
2024-01-20T03:08:12.490Z,-24.02
2024-01-20T03:11:16.078Z,-24.02
2024-01-20T03:14:19.490Z,-23.87
2024-01-20T03:17:22.923Z,-23.77
2024-01-20T03:20:26.078Z,-23.66
2024-01-20T03:23:29.481Z,-23.57
2024-01-20T03:26:33.158Z,-23.50
2024-01-20T03:29:36.917Z,-23.40
2024-01-20T03:32:40.088Z,-23.30
2024-01-20T03:35:43.537Z,-23.21
2024-01-20T03:38:47.214Z,-23.04
2024-01-20T03:41:50.724Z,-22.91
2024-01-20T03:44:54.256Z,-22.78
2024-01-20T03:47:57.625Z,-22.64
2024-01-20T03:51:00.777Z,-22.51
2024-01-20T03:54:06.118Z,-22.42
2024-01-20T03:57:12.993Z,-22.26
2024-01-20T04:00:16.801Z,-22.14
2024-01-20T04:03:20.531Z,-22.03
2024-01-20T04:06:23.953Z,-21.93
2024-01-20T04:09:27.383Z,-21.84
2024-01-20T04:12:30.546Z,-21.71
2024-01-20T04:15:34.341Z,-21.66
2024-01-20T04:18:38.203Z,-21.58
2024-01-20T04:21:45.172Z,-21.45
2024-01-20T04:24:51.584Z,-21.32
2024-01-20T04:27:55.386Z,-21.21
2024-01-20T04:30:58.661Z,-21.18
2024-01-20T04:34:02.448Z,-21.12
2024-01-20T04:37:05.997Z,-21.05
2024-01-20T04:40:09.999Z,-20.95
2024-01-20T04:43:14.616Z,-20.85
2024-01-20T04:46:18.008Z,-20.72
2024-01-20T04:49:21.470Z,-20.59
2024-01-20T04:52:25.273Z,-20.45
2024-01-20T04:55:28.742Z,-20.39
2024-01-20T04:58:32.440Z,-20.29
2024-01-20T05:01:36.584Z,-20.16
2024-01-20T05:04:40.899Z,-20.09
2024-01-20T05:07:44.312Z,-19.99
2024-01-20T05:10:47.757Z,-19.85
2024-01-20T05:13:51.136Z,-19.76
2024-01-20T05:16:54.495Z,-19.65
2024-01-20T05:19:58.050Z,-19.55
2024-01-20T05:23:01.529Z,-19.46
2024-01-20T05:26:04.997Z,-19.37
2024-01-20T05:29:08.380Z,-19.32
2024-01-20T05:32:11.734Z,-19.23
2024-01-20T05:35:15.577Z,-19.12
2024-01-20T05:38:18.899Z,-19.01
2024-01-20T05:41:22.262Z,-18.92
2024-01-20T05:44:25.659Z,-18.80
2024-01-20T05:47:29.023Z,-18.70
2024-01-20T05:50:32.412Z,-18.61
2024-01-20T05:53:35.806Z,-18.58
2024-01-20T05:56:39.197Z,-18.55
2024-01-20T05:59:42.597Z,-18.56
2024-01-20T06:02:46.443Z,-18.56
2024-01-20T06:05:50.649Z,-18.56
2024-01-20T06:08:54.541Z,-18.54
2024-01-20T06:11:57.633Z,-18.45
2024-01-20T06:15:02.482Z,-18.43
2024-01-20T06:18:06.096Z,-18.41
2024-01-20T06:21:10.034Z,-18.39
2024-01-20T06:24:14.399Z,-18.36
2024-01-20T06:27:17.819Z,-18.34
2024-01-20T06:30:21.244Z,-18.35
2024-01-20T06:33:24.805Z,-18.28
2024-01-20T06:36:28.315Z,-18.22
2024-01-20T06:39:31.793Z,-18.19
2024-01-20T06:42:35.444Z,-18.15
2024-01-20T06:45:39.337Z,-18.16
2024-01-20T06:48:43.173Z,-18.19
2024-01-20T06:51:47.298Z,-18.15
2024-01-20T06:54:51.016Z,-18.13
2024-01-20T06:57:54.302Z,-18.13
2024-01-20T07:00:57.785Z,-18.10
2024-01-20T07:04:01.489Z,-18.06
2024-01-20T07:07:05.058Z,-18.02
2024-01-20T07:10:10.674Z,-18.00
2024-01-20T07:13:13.993Z,-18.02
2024-01-20T07:16:17.559Z,-18.02
2024-01-20T07:19:21.043Z,-18.03
2024-01-20T07:22:24.461Z,-18.04
2024-01-20T07:25:27.786Z,-18.01
2024-01-20T07:28:31.248Z,-17.95
2024-01-20T07:31:34.784Z,-17.94
2024-01-20T07:34:38.204Z,-17.97
2024-01-20T07:37:43.659Z,-17.98
2024-01-20T07:40:47.447Z,-18.05
2024-01-20T07:43:50.959Z,-18.10
2024-01-20T07:46:54.372Z,-18.18
2024-01-20T07:49:57.709Z,-18.29
2024-01-20T07:53:01.023Z,-18.37
2024-01-20T07:56:04.447Z,-18.47
2024-01-20T07:59:07.905Z,-18.55
2024-01-20T08:02:11.404Z,-18.67
2024-01-20T08:05:14.781Z,-18.81
2024-01-20T08:08:18.145Z,-18.90
2024-01-20T08:11:23.218Z,-18.98
2024-01-20T08:14:26.667Z,-19.07
2024-01-20T08:17:30.171Z,-19.04
2024-01-20T08:20:33.574Z,-19.11
2024-01-20T08:23:36.982Z,-19.18
2024-01-20T08:26:40.381Z,-19.28
2024-01-20T08:29:44.126Z,-19.32
2024-01-20T08:32:47.327Z,-19.52
2024-01-20T08:35:52.002Z,-19.83
2024-01-20T08:38:55.347Z,-19.94
2024-01-20T08:41:58.753Z,-19.89
2024-01-20T08:45:02.334Z,-19.83
2024-01-20T08:48:06.266Z,-19.84
2024-01-20T08:51:14.679Z,-19.90
2024-01-20T08:54:18.792Z,-19.95
2024-01-20T08:57:23.237Z,-20.05
2024-01-20T09:00:27.276Z,-20.16
2024-01-20T09:03:31.625Z,-20.20
2024-01-20T09:06:35.517Z,-20.26
2024-01-20T09:09:39.222Z,-20.47
2024-01-20T09:12:42.621Z,-20.56
2024-01-20T09:15:47.851Z,-20.56
2024-01-20T09:18:51.263Z,-20.56
2024-01-20T09:21:55.466Z,-20.59
2024-01-20T09:25:00.191Z,-20.61
2024-01-20T09:28:05.963Z,-20.67
2024-01-20T09:31:09.448Z,-20.72
2024-01-20T09:34:13.032Z,-20.90
2024-01-20T09:37:16.130Z,-20.99
2024-01-20T09:40:20.472Z,-21.06
2024-01-20T09:43:24.430Z,-21.06
2024-01-20T09:46:27.894Z,-21.02
2024-01-20T09:49:31.388Z,-21.02
2024-01-20T09:52:39.143Z,-21.07
2024-01-20T09:55:44.354Z,-21.14
2024-01-20T09:58:48.601Z,-21.18
2024-01-20T10:01:53.256Z,-21.23
2024-01-20T10:05:02.185Z,-21.21
2024-01-20T10:08:07.783Z,-21.24
2024-01-20T10:11:11.949Z,-21.28
2024-01-20T10:14:15.581Z,-21.29
2024-01-20T10:17:19.159Z,-21.27
2024-01-20T10:20:23.296Z,-21.24
2024-01-20T10:23:26.640Z,-21.26
2024-01-20T10:26:29.966Z,-21.31
2024-01-20T10:29:33.322Z,-21.31
2024-01-20T10:32:53.244Z,-21.43
2024-01-20T10:36:01.736Z,-21.46
2024-01-20T10:39:08.236Z,-21.60
2024-01-20T10:42:17.246Z,-21.73
2024-01-20T10:45:21.326Z,-21.79
2024-01-20T10:48:29.912Z,-21.79
2024-01-20T10:51:35.377Z,-21.75
2024-01-20T10:54:39.745Z,-21.59
2024-01-20T10:57:44.457Z,-21.44
2024-01-20T11:00:48.433Z,-21.41
2024-01-20T11:03:52.369Z,-21.40
2024-01-20T11:06:57.510Z,-21.29
2024-01-20T11:10:02.218Z,-21.20
2024-01-20T11:13:06.959Z,-21.16
2024-01-20T11:16:23.491Z,-21.12
2024-01-20T11:19:32.413Z,-21.11
2024-01-20T11:22:40.801Z,-21.28
2024-01-20T11:25:46.871Z,-21.37
2024-01-20T11:28:50.281Z,-21.41
2024-01-20T11:31:53.786Z,-21.40
2024-01-20T11:34:57.449Z,-21.40
2024-01-20T11:38:03.709Z,-21.45
2024-01-20T11:41:07.392Z,-21.49
2024-01-20T11:44:10.764Z,-21.56
2024-01-20T11:47:14.231Z,-21.54
2024-01-20T11:50:17.756Z,-21.57
2024-01-20T11:53:23.865Z,-21.59
2024-01-20T11:56:27.283Z,-21.67
2024-01-20T11:59:30.983Z,-21.66
2024-01-20T12:02:35.256Z,-21.73
2024-01-20T12:05:38.741Z,-21.90
2024-01-20T12:08:46.858Z,-22.13
2024-01-20T12:11:50.546Z,-22.49
2024-01-20T12:14:53.903Z,-22.73
2024-01-20T12:17:57.685Z,-22.81
2024-01-20T12:21:01.402Z,-22.80
2024-01-20T12:24:07.016Z,-22.76
2024-01-20T12:27:12.895Z,-22.67
2024-01-20T12:30:16.649Z,-22.56
2024-01-20T12:33:20.383Z,-22.42
2024-01-20T12:36:24.225Z,-22.30
2024-01-20T12:39:27.950Z,-22.25
2024-01-20T12:42:31.825Z,-22.26
2024-01-20T12:45:35.304Z,-22.25
2024-01-20T12:48:39.951Z,-22.26
2024-01-20T12:51:44.897Z,-22.54
2024-01-20T12:54:49.565Z,-22.79
2024-01-20T12:57:53.418Z,-22.98
2024-01-20T13:00:56.920Z,-23.09
2024-01-20T13:04:00.048Z,-23.12
2024-01-20T13:07:03.685Z,-23.22
2024-01-20T13:10:07.645Z,-23.18
2024-01-20T13:13:11.026Z,-23.02
2024-01-20T13:16:14.210Z,-22.85
2024-01-20T13:19:17.663Z,-22.76
2024-01-20T13:22:21.392Z,-22.73
2024-01-20T13:25:26.044Z,-22.71
2024-01-20T13:28:31.138Z,-22.70
2024-01-20T13:31:36.506Z,-22.64
2024-01-20T13:34:40.019Z,-22.76
2024-01-20T13:37:43.434Z,-22.92
2024-01-20T13:40:46.481Z,-23.05
2024-01-20T13:43:49.860Z,-23.08
2024-01-20T13:46:52.987Z,-23.11
2024-01-20T13:49:56.689Z,-23.11
2024-01-20T13:53:00.901Z,-23.01
2024-01-20T13:56:04.389Z,-22.97
2024-01-20T13:59:07.577Z,-22.94
2024-01-20T14:02:11.100Z,-22.94
2024-01-20T14:05:15.160Z,-22.93
2024-01-20T14:08:18.728Z,-22.95
2024-01-20T14:11:22.142Z,-22.99
2024-01-20T14:14:43.817Z,-23.07
2024-01-20T14:17:47.580Z,-23.17
2024-01-20T14:20:51.445Z,-23.30
2024-01-20T14:23:54.765Z,-23.42
2024-01-20T14:26:57.853Z,-23.61
2024-01-20T14:30:01.782Z,-23.87
2024-01-20T14:33:06.030Z,-23.79
2024-01-20T14:36:09.996Z,-23.65
2024-01-20T14:39:15.008Z,-23.53
2024-01-20T14:42:18.490Z,-23.47
2024-01-20T14:45:25.826Z,-23.49
2024-01-20T14:48:29.422Z,-23.52
2024-01-20T14:51:33.351Z,-23.49
2024-01-20T14:54:37.174Z,-23.51
2024-01-20T14:57:41.177Z,-23.57
2024-01-20T15:00:45.680Z,-23.72
2024-01-20T15:03:49.307Z,-23.77
2024-01-20T15:06:52.883Z,-23.79
2024-01-20T15:09:56.339Z,-23.76
2024-01-20T15:12:59.754Z,-23.94
2024-01-20T15:16:03.094Z,-24.24
2024-01-20T15:19:06.817Z,-24.23
2024-01-20T15:22:10.745Z,-24.18
2024-01-20T15:25:17.356Z,-24.12
2024-01-20T15:28:20.733Z,-24.01
2024-01-20T15:31:24.224Z,-23.94
2024-01-20T15:34:27.821Z,-23.96
2024-01-20T15:37:31.295Z,-24.14
2024-01-20T15:40:34.849Z,-24.49
2024-01-20T15:43:38.357Z,-24.68
2024-01-20T15:46:41.944Z,-24.59
2024-01-20T15:49:48.020Z,-24.42
2024-01-20T15:52:51.755Z,-24.39
2024-01-20T15:55:55.542Z,-24.35
2024-01-20T15:58:59.170Z,-24.32
2024-01-20T16:02:02.679Z,-24.31
2024-01-20T16:05:06.974Z,-24.27
2024-01-20T16:08:10.318Z,-24.23
2024-01-20T16:11:14.347Z,-24.23
2024-01-20T16:14:25.219Z,-24.43
2024-01-20T16:17:28.894Z,-24.60
2024-01-20T16:20:33.200Z,-24.61
2024-01-20T16:23:36.563Z,-24.52
2024-01-20T16:26:40.413Z,-24.57
2024-01-20T16:29:43.936Z,-24.80
2024-01-20T16:32:47.370Z,-24.95
2024-01-20T16:35:50.734Z,-24.92
2024-01-20T16:38:54.465Z,-24.89
2024-01-20T16:41:57.837Z,-24.82
2024-01-20T16:45:01.390Z,-24.72
2024-01-20T16:48:05.317Z,-24.69
2024-01-20T16:51:15.320Z,-24.86
2024-01-20T16:54:26.383Z,-24.92
2024-01-20T16:57:29.879Z,-24.95
2024-01-20T17:00:34.365Z,-24.82
2024-01-20T17:03:37.898Z,-24.77
2024-01-20T17:06:41.284Z,-25.01
2024-01-20T17:09:45.461Z,-25.36
2024-01-20T17:12:48.920Z,-25.75
2024-01-20T17:15:53.243Z,-25.90
2024-01-20T17:18:56.713Z,-25.95
2024-01-20T17:22:00.350Z,-25.85
2024-01-20T17:25:03.778Z,-25.83
2024-01-20T17:28:07.235Z,-25.88
2024-01-20T17:31:10.527Z,-26.01
2024-01-20T17:34:15.226Z,-25.87
2024-01-20T17:37:18.629Z,-25.75
2024-01-20T17:40:22.349Z,-25.63
2024-01-20T17:43:25.692Z,-25.50
2024-01-20T17:46:29.063Z,-25.39
2024-01-20T17:49:32.469Z,-25.25
2024-01-20T17:52:35.914Z,-25.19
2024-01-20T17:55:39.225Z,-25.32
2024-01-20T17:58:43.307Z,-25.36
2024-01-20T18:01:46.795Z,-25.33
2024-01-20T18:04:50.464Z,-25.29
2024-01-20T18:07:54.103Z,-25.23
2024-01-20T18:10:57.429Z,-25.14
2024-01-20T18:14:00.749Z,-25.13
2024-01-20T18:17:07.215Z,-25.17
2024-01-20T18:20:10.802Z,-25.27
2024-01-20T18:23:14.193Z,-25.34
2024-01-20T18:26:17.581Z,-25.30
2024-01-20T18:29:21.014Z,-25.31
2024-01-20T18:32:25.787Z,-25.31
2024-01-20T18:35:29.349Z,-25.40
2024-01-20T18:38:33.447Z,-25.41
2024-01-20T18:41:36.831Z,-25.33
2024-01-20T18:44:40.765Z,-25.28
2024-01-20T18:47:47.761Z,-25.29
2024-01-20T18:50:51.700Z,-25.21
2024-01-20T18:53:56.161Z,-25.16
2024-01-20T18:56:59.579Z,-25.14
2024-01-20T19:00:03.074Z,-25.14
2024-01-20T19:03:06.548Z,-25.17
2024-01-20T19:06:11.021Z,-25.18
2024-01-20T19:09:14.603Z,-25.23
2024-01-20T19:12:17.972Z,-25.29
2024-01-20T19:15:21.634Z,-25.54
2024-01-20T19:18:26.426Z,-25.63
2024-01-20T19:21:29.838Z,-25.62
2024-01-20T19:24:34.222Z,-25.49
2024-01-20T19:27:37.689Z,-25.40
2024-01-20T19:30:41.038Z,-25.40
2024-01-20T19:33:48.771Z,-25.43
2024-01-20T19:36:52.255Z,-25.44
2024-01-20T19:39:55.718Z,-25.38
2024-01-20T19:42:59.610Z,-25.38
2024-01-20T19:46:03.394Z,-25.40
2024-01-20T19:49:06.882Z,-25.69
2024-01-20T19:52:10.335Z,-25.99
2024-01-20T19:55:13.778Z,-26.20
2024-01-20T19:58:17.170Z,-26.18
2024-01-20T20:01:20.675Z,-26.13
2024-01-20T20:04:24.266Z,-26.01
2024-01-20T20:07:27.624Z,-25.86
2024-01-20T20:10:31.203Z,-25.77
2024-01-20T20:13:34.652Z,-25.75
2024-01-20T20:16:38.614Z,-25.73
2024-01-20T20:19:42.094Z,-25.71
2024-01-20T20:22:45.558Z,-25.70
2024-01-20T20:25:48.863Z,-25.78
2024-01-20T20:28:52.278Z,-25.85
2024-01-20T20:31:55.611Z,-25.85
2024-01-20T20:34:59.884Z,-25.82
2024-01-20T20:38:04.451Z,-25.78
2024-01-20T20:41:07.924Z,-25.72
2024-01-20T20:44:11.315Z,-25.76
2024-01-20T20:47:14.662Z,-25.77
2024-01-20T20:50:18.578Z,-25.79
2024-01-20T20:53:22.455Z,-25.84
2024-01-20T20:56:25.860Z,-25.91
2024-01-20T20:59:29.310Z,-26.03
2024-01-20T21:02:32.733Z,-26.19
2024-01-20T21:05:36.125Z,-26.22
2024-01-20T21:08:39.600Z,-26.27
2024-01-20T21:11:43.165Z,-26.44
2024-01-20T21:14:46.553Z,-26.55
2024-01-20T21:17:49.969Z,-26.96
2024-01-20T21:20:53.378Z,-27.42
2024-01-20T21:23:56.716Z,-27.70
2024-01-20T21:27:00.835Z,-27.51
2024-01-20T21:30:05.845Z,-27.24
2024-01-20T21:33:11.063Z,-26.97
2024-01-20T21:36:15.053Z,-26.81
2024-01-20T21:39:18.766Z,-26.69
2024-01-20T21:42:22.735Z,-26.62
2024-01-20T21:45:26.151Z,-26.65
2024-01-20T21:48:29.764Z,-26.71
2024-01-20T21:51:33.319Z,-26.84
2024-01-20T21:54:36.723Z,-26.88
2024-01-20T21:57:41.150Z,-26.86
2024-01-20T22:00:44.596Z,-26.79
2024-01-20T22:03:49.700Z,-26.76
2024-01-20T22:06:53.152Z,-26.77
2024-01-20T22:09:57.158Z,-26.79
2024-01-20T22:13:00.511Z,-26.81
2024-01-20T22:16:03.811Z,-27.07
2024-01-20T22:19:07.918Z,-27.12
2024-01-20T22:22:11.651Z,-26.99
2024-01-20T22:25:15.246Z,-26.89
2024-01-20T22:28:18.695Z,-26.75
2024-01-20T22:31:22.579Z,-26.63
2024-01-20T22:34:32.749Z,-26.52
2024-01-20T22:37:36.810Z,-26.43
2024-01-20T22:40:40.157Z,-26.34
2024-01-20T22:43:43.503Z,-26.33
2024-01-20T22:46:48.204Z,-26.30
2024-01-20T22:49:51.720Z,-26.33
2024-01-20T22:52:55.236Z,-26.42
2024-01-20T22:55:58.855Z,-26.57
2024-01-20T22:59:02.168Z,-26.69
2024-01-20T23:02:05.671Z,-26.73
2024-01-20T23:05:11.136Z,-26.71
2024-01-20T23:08:15.512Z,-26.69
2024-01-20T23:11:19.946Z,-26.59
2024-01-20T23:14:23.305Z,-26.53
2024-01-20T23:17:27.096Z,-26.56
2024-01-20T23:20:30.759Z,-26.54
2024-01-20T23:23:34.155Z,-26.57
2024-01-20T23:26:38.218Z,-26.81
2024-01-20T23:29:41.892Z,-27.06
2024-01-20T23:32:45.248Z,-27.06
2024-01-20T23:35:48.617Z,-27.14
2024-01-20T23:38:51.897Z,-27.50
2024-01-20T23:41:55.313Z,-27.70
2024-01-20T23:44:58.827Z,-27.54
2024-01-20T23:48:02.421Z,-27.27
2024-01-20T23:51:06.357Z,-27.03
2024-01-20T23:54:09.917Z,-27.01
2024-01-20T23:57:13.294Z,-26.99
